Portada
METAR-TAF:

METAR-TAF

Aeroports :

North Kingstown, Rhode Island, Estats Units d'Amèrica

latitud: 41-36N, longitud: 071-25W, altitud: 6 m

Observació

L'informe es va fer fa 46 minuts, a les 11:50 UTC
Vent 3 kt del Nord/Nord-Est
Temperatura 17°C
Humitat 94%
Pressió 1024 hPa
Visibilitat: 8.0 km
Cel ennuvolat a una alçada de 10000 ft
boirina

METAR: KOQU 221150Z 02003KT 5SM BR BKN100 17/16 A3025

Hora: 08:36 (12:36 UTC)


TAF: manca

Observacions i pronòstics meteorològics de més de 4000 aeroports (METAR i TAF).

Les estacions disponibles són els punts grocs i vermells al mapa.

Posi el ratolí al punt desitjat per veure el nom de l'estació.

Feu clic per veure les observacions i els pronòstics meteorològics.

Per canviar el mapa: feu clic els botons verds amb una creu de color negre per apropar; al botó verd amb un guió per allunyar la imatge; o en les fletxes verdes per a mapes adjacents.


METAR-TAF: